sensor_id;sensor_type;location;lat;lon;timestamp;P1;durP1;ratioP1;P2;durP2;ratioP2
35693;SDS011;21812;55.536;37.664;2024-02-26T00:02:24;6.80;;;2.33;;
35693;SDS011;21812;55.536;37.664;2024-02-26T00:04:49;4.72;;;2.08;;
35693;SDS011;21812;55.536;37.664;2024-02-26T00:07:15;3.25;;;1.83;;
35693;SDS011;21812;55.536;37.664;2024-02-26T00:09:41;2.83;;;1.75;;
35693;SDS011;21812;55.536;37.664;2024-02-26T00:12:07;3.38;;;1.92;;
35693;SDS011;21812;55.536;37.664;2024-02-26T00:14:33;6.10;;;2.35;;
35693;SDS011;21812;55.536;37.664;2024-02-26T00:16:59;3.63;;;2.00;;
35693;SDS011;21812;55.536;37.664;2024-02-26T00:19:25;3.90;;;2.00;;
35693;SDS011;21812;55.536;37.664;2024-02-26T00:21:51;7.15;;;2.22;;
35693;SDS011;21812;55.536;37.664;2024-02-26T00:24:19;3.17;;;1.95;;
35693;SDS011;21812;55.536;37.664;2024-02-26T00:26:44;4.00;;;2.33;;
35693;SDS011;21812;55.536;37.664;2024-02-26T00:29:10;4.78;;;2.72;;
35693;SDS011;21812;55.536;37.664;2024-02-26T00:31:36;6.55;;;2.50;;
35693;SDS011;21812;55.536;37.664;2024-02-26T00:34:03;3.58;;;2.33;;
35693;SDS011;21812;55.536;37.664;2024-02-26T00:36:28;3.17;;;2.15;;
35693;SDS011;21812;55.536;37.664;2024-02-26T00:38:54;5.30;;;2.17;;
35693;SDS011;21812;55.536;37.664;2024-02-26T00:41:21;3.33;;;2.55;;
35693;SDS011;21812;55.536;37.664;2024-02-26T00:43:47;4.70;;;1.70;;
35693;SDS011;21812;55.536;37.664;2024-02-26T00:46:12;3.60;;;2.30;;
35693;SDS011;21812;55.536;37.664;2024-02-26T00:48:38;4.05;;;1.98;;
35693;SDS011;21812;55.536;37.664;2024-02-26T00:51:04;3.53;;;2.47;;
35693;SDS011;21812;55.536;37.664;2024-02-26T00:53:33;3.15;;;2.00;;
35693;SDS011;21812;55.536;37.664;2024-02-26T00:55:59;3.85;;;2.72;;
35693;SDS011;21812;55.536;37.664;2024-02-26T00:58:25;3.58;;;2.25;;
35693;SDS011;21812;55.536;37.664;2024-02-26T01:00:51;4.60;;;2.08;;
35693;SDS011;21812;55.536;37.664;2024-02-26T01:03:17;4.25;;;1.92;;
35693;SDS011;21812;55.536;37.664;2024-02-26T01:05:43;2.78;;;1.98;;
35693;SDS011;21812;55.536;37.664;2024-02-26T01:08:09;2.92;;;1.75;;
35693;SDS011;21812;55.536;37.664;2024-02-26T01:10:35;3.58;;;1.80;;
35693;SDS011;21812;55.536;37.664;2024-02-26T01:13:01;3.28;;;1.80;;
35693;SDS011;21812;55.536;37.664;2024-02-26T01:15:27;3.63;;;2.28;;
35693;SDS011;21812;55.536;37.664;2024-02-26T01:17:52;4.95;;;2.00;;
35693;SDS011;21812;55.536;37.664;2024-02-26T01:20:18;4.82;;;2.22;;
35693;SDS011;21812;55.536;37.664;2024-02-26T01:22:44;4.47;;;2.08;;
35693;SDS011;21812;55.536;37.664;2024-02-26T01:25:10;5.13;;;1.85;;
35693;SDS011;21812;55.536;37.664;2024-02-26T01:27:36;4.65;;;1.83;;
35693;SDS011;21812;55.536;37.664;2024-02-26T01:30:03;4.75;;;2.05;;
35693;SDS011;21812;55.536;37.664;2024-02-26T01:32:30;2.92;;;1.90;;
35693;SDS011;21812;55.536;37.664;2024-02-26T01:34:56;5.63;;;1.55;;
35693;SDS011;21812;55.536;37.664;2024-02-26T01:37:22;4.35;;;1.90;;
35693;SDS011;21812;55.536;37.664;2024-02-26T01:39:48;4.30;;;1.92;;
35693;SDS011;21812;55.536;37.664;2024-02-26T01:42:13;5.22;;;1.60;;
35693;SDS011;21812;55.536;37.664;2024-02-26T01:44:39;3.85;;;1.85;;
35693;SDS011;21812;55.536;37.664;2024-02-26T01:47:05;4.03;;;1.60;;
35693;SDS011;21812;55.536;37.664;2024-02-26T01:49:33;3.63;;;1.42;;
35693;SDS011;21812;55.536;37.664;2024-02-26T01:52:00;3.60;;;1.90;;
35693;SDS011;21812;55.536;37.664;2024-02-26T01:54:28;3.17;;;1.55;;
35693;SDS011;21812;55.536;37.664;2024-02-26T01:56:55;5.68;;;2.05;;
35693;SDS011;21812;55.536;37.664;2024-02-26T01:59:21;2.70;;;1.58;;
35693;SDS011;21812;55.536;37.664;2024-02-26T02:01:48;2.92;;;1.52;;
35693;SDS011;21812;55.536;37.664;2024-02-26T02:04:19;2.05;;;1.52;;
35693;SDS011;21812;55.536;37.664;2024-02-26T02:06:46;4.32;;;2.20;;
35693;SDS011;21812;55.536;37.664;2024-02-26T02:09:12;2.10;;;1.58;;
35693;SDS011;21812;55.536;37.664;2024-02-26T02:11:38;2.88;;;1.50;;
35693;SDS011;21812;55.536;37.664;2024-02-26T02:14:04;2.90;;;1.50;;
35693;SDS011;21812;55.536;37.664;2024-02-26T02:16:30;4.10;;;1.65;;
35693;SDS011;21812;55.536;37.664;2024-02-26T02:18:57;2.25;;;1.30;;
35693;SDS011;21812;55.536;37.664;2024-02-26T02:21:24;4.75;;;1.50;;
35693;SDS011;21812;55.536;37.664;2024-02-26T02:23:49;2.53;;;1.63;;
35693;SDS011;21812;55.536;37.664;2024-02-26T02:26:15;2.38;;;1.70;;
35693;SDS011;21812;55.536;37.664;2024-02-26T02:28:42;3.20;;;1.80;;
35693;SDS011;21812;55.536;37.664;2024-02-26T02:31:08;5.30;;;1.33;;
35693;SDS011;21812;55.536;37.664;2024-02-26T02:33:34;2.28;;;1.27;;
35693;SDS011;21812;55.536;37.664;2024-02-26T02:36:00;2.65;;;1.33;;
35693;SDS011;21812;55.536;37.664;2024-02-26T02:38:26;2.95;;;1.52;;
35693;SDS011;21812;55.536;37.664;2024-02-26T02:40:55;3.10;;;1.55;;
35693;SDS011;21812;55.536;37.664;2024-02-26T02:43:21;2.35;;;1.45;;
35693;SDS011;21812;55.536;37.664;2024-02-26T02:45:47;3.63;;;1.70;;
35693;SDS011;21812;55.536;37.664;2024-02-26T02:48:12;3.97;;;1.50;;
35693;SDS011;21812;55.536;37.664;2024-02-26T02:50:38;3.30;;;1.70;;
35693;SDS011;21812;55.536;37.664;2024-02-26T02:53:04;3.78;;;1.25;;
35693;SDS011;21812;55.536;37.664;2024-02-26T02:55:29;2.15;;;1.25;;
35693;SDS011;21812;55.536;37.664;2024-02-26T02:57:55;3.45;;;1.63;;
35693;SDS011;21812;55.536;37.664;2024-02-26T03:00:21;4.43;;;1.38;;
35693;SDS011;21812;55.536;37.664;2024-02-26T03:02:49;3.25;;;1.58;;
35693;SDS011;21812;55.536;37.664;2024-02-26T03:05:15;3.00;;;1.65;;
35693;SDS011;21812;55.536;37.664;2024-02-26T03:07:41;3.63;;;1.38;;
35693;SDS011;21812;55.536;37.664;2024-02-26T03:10:07;4.38;;;1.33;;
35693;SDS011;21812;55.536;37.664;2024-02-26T03:12:33;5.28;;;1.30;;
35693;SDS011;21812;55.536;37.664;2024-02-26T03:15:00;7.10;;;1.65;;
35693;SDS011;21812;55.536;37.664;2024-02-26T03:17:31;3.70;;;1.70;;
35693;SDS011;21812;55.536;37.664;2024-02-26T03:19:57;3.75;;;1.30;;
35693;SDS011;21812;55.536;37.664;2024-02-26T03:22:22;2.88;;;1.52;;
35693;SDS011;21812;55.536;37.664;2024-02-26T03:24:48;5.60;;;1.23;;
35693;SDS011;21812;55.536;37.664;2024-02-26T03:27:14;3.60;;;1.85;;
35693;SDS011;21812;55.536;37.664;2024-02-26T03:29:40;3.33;;;1.25;;
35693;SDS011;21812;55.536;37.664;2024-02-26T03:32:06;4.18;;;2.03;;
35693;SDS011;21812;55.536;37.664;2024-02-26T03:34:32;3.67;;;1.60;;
35693;SDS011;21812;55.536;37.664;2024-02-26T03:37:01;2.63;;;1.60;;
35693;SDS011;21812;55.536;37.664;2024-02-26T03:39:27;6.25;;;2.33;;
35693;SDS011;21812;55.536;37.664;2024-02-26T03:41:52;6.20;;;2.08;;
35693;SDS011;21812;55.536;37.664;2024-02-26T03:44:19;2.60;;;1.63;;
35693;SDS011;21812;55.536;37.664;2024-02-26T03:46:45;4.40;;;2.10;;
35693;SDS011;21812;55.536;37.664;2024-02-26T03:49:11;3.97;;;1.77;;
35693;SDS011;21812;55.536;37.664;2024-02-26T03:51:37;2.30;;;1.45;;
35693;SDS011;21812;55.536;37.664;2024-02-26T03:54:02;4.55;;;2.00;;
35693;SDS011;21812;55.536;37.664;2024-02-26T03:56:28;8.13;;;3.30;;
35693;SDS011;21812;55.536;37.664;2024-02-26T03:58:54;5.75;;;1.90;;
35693;SDS011;21812;55.536;37.664;2024-02-26T04:01:19;10.02;;;2.25;;
35693;SDS011;21812;55.536;37.664;2024-02-26T04:03:45;6.65;;;1.95;;
35693;SDS011;21812;55.536;37.664;2024-02-26T04:06:11;3.03;;;1.70;;
35693;SDS011;21812;55.536;37.664;2024-02-26T04:08:43;3.90;;;1.90;;
35693;SDS011;21812;55.536;37.664;2024-02-26T04:11:09;5.53;;;2.13;;
35693;SDS011;21812;55.536;37.664;2024-02-26T04:13:35;4.95;;;2.03;;
35693;SDS011;21812;55.536;37.664;2024-02-26T04:16:01;2.65;;;1.50;;
35693;SDS011;21812;55.536;37.664;2024-02-26T04:18:27;6.47;;;2.28;;
35693;SDS011;21812;55.536;37.664;2024-02-26T04:20:53;5.60;;;1.85;;
35693;SDS011;21812;55.536;37.664;2024-02-26T04:23:19;2.53;;;2.22;;
35693;SDS011;21812;55.536;37.664;2024-02-26T04:25:45;6.47;;;2.20;;
35693;SDS011;21812;55.536;37.664;2024-02-26T04:28:11;5.70;;;2.00;;
35693;SDS011;21812;55.536;37.664;2024-02-26T04:30:37;6.10;;;2.05;;
35693;SDS011;21812;55.536;37.664;2024-02-26T04:33:03;4.90;;;1.90;;
35693;SDS011;21812;55.536;37.664;2024-02-26T04:35:29;11.85;;;3.15;;
35693;SDS011;21812;55.536;37.664;2024-02-26T04:37:55;6.88;;;2.75;;
35693;SDS011;21812;55.536;37.664;2024-02-26T04:40:21;10.57;;;2.05;;
35693;SDS011;21812;55.536;37.664;2024-02-26T04:42:47;7.00;;;2.25;;
35693;SDS011;21812;55.536;37.664;2024-02-26T04:45:12;7.00;;;2.50;;
35693;SDS011;21812;55.536;37.664;2024-02-26T04:47:38;6.45;;;2.70;;
35693;SDS011;21812;55.536;37.664;2024-02-26T04:50:04;9.43;;;2.38;;
35693;SDS011;21812;55.536;37.664;2024-02-26T04:52:30;5.18;;;2.20;;
35693;SDS011;21812;55.536;37.664;2024-02-26T04:54:56;5.25;;;2.03;;
35693;SDS011;21812;55.536;37.664;2024-02-26T04:57:22;6.38;;;2.58;;
35693;SDS011;21812;55.536;37.664;2024-02-26T04:59:48;5.65;;;2.53;;
35693;SDS011;21812;55.536;37.664;2024-02-26T05:02:13;4.65;;;2.60;;
35693;SDS011;21812;55.536;37.664;2024-02-26T05:04:39;4.90;;;2.15;;
35693;SDS011;21812;55.536;37.664;2024-02-26T05:07:05;6.03;;;2.60;;
35693;SDS011;21812;55.536;37.664;2024-02-26T05:09:31;8.45;;;2.88;;
35693;SDS011;21812;55.536;37.664;2024-02-26T05:11:57;6.72;;;2.72;;
35693;SDS011;21812;55.536;37.664;2024-02-26T05:14:23;5.15;;;3.35;;
35693;SDS011;21812;55.536;37.664;2024-02-26T05:16:48;6.15;;;2.63;;
35693;SDS011;21812;55.536;37.664;2024-02-26T05:19:14;5.43;;;2.72;;
35693;SDS011;21812;55.536;37.664;2024-02-26T05:21:40;4.25;;;1.90;;
35693;SDS011;21812;55.536;37.664;2024-02-26T05:24:06;8.95;;;2.83;;
35693;SDS011;21812;55.536;37.664;2024-02-26T05:26:32;3.47;;;2.47;;
35693;SDS011;21812;55.536;37.664;2024-02-26T05:28:57;8.40;;;3.00;;
35693;SDS011;21812;55.536;37.664;2024-02-26T05:31:25;3.20;;;1.90;;
35693;SDS011;21812;55.536;37.664;2024-02-26T05:33:52;4.97;;;2.00;;
35693;SDS011;21812;55.536;37.664;2024-02-26T05:36:18;4.95;;;2.40;;
35693;SDS011;21812;55.536;37.664;2024-02-26T05:38:47;3.47;;;2.35;;
35693;SDS011;21812;55.536;37.664;2024-02-26T05:41:16;7.15;;;2.83;;
35693;SDS011;21812;55.536;37.664;2024-02-26T05:43:49;3.97;;;2.72;;
35693;SDS011;21812;55.536;37.664;2024-02-26T05:46:18;9.43;;;2.67;;
35693;SDS011;21812;55.536;37.664;2024-02-26T05:48:49;6.20;;;2.35;;
35693;SDS011;21812;55.536;37.664;2024-02-26T05:51:16;7.00;;;3.03;;
35693;SDS011;21812;55.536;37.664;2024-02-26T05:53:42;4.75;;;1.83;;
35693;SDS011;21812;55.536;37.664;2024-02-26T05:56:08;4.38;;;2.45;;
35693;SDS011;21812;55.536;37.664;2024-02-26T05:58:33;4.32;;;2.20;;
35693;SDS011;21812;55.536;37.664;2024-02-26T06:00:59;3.38;;;1.85;;
35693;SDS011;21812;55.536;37.664;2024-02-26T06:03:27;5.38;;;2.88;;
35693;SDS011;21812;55.536;37.664;2024-02-26T06:05:53;10.20;;;4.18;;
35693;SDS011;21812;55.536;37.664;2024-02-26T06:08:19;12.57;;;4.90;;
35693;SDS011;21812;55.536;37.664;2024-02-26T06:10:45;24.33;;;9.73;;
35693;SDS011;21812;55.536;37.664;2024-02-26T06:13:10;8.38;;;3.70;;
35693;SDS011;21812;55.536;37.664;2024-02-26T06:15:36;9.88;;;3.50;;
35693;SDS011;21812;55.536;37.664;2024-02-26T06:18:02;9.07;;;3.95;;
35693;SDS011;21812;55.536;37.664;2024-02-26T06:20:28;4.95;;;2.88;;
35693;SDS011;21812;55.536;37.664;2024-02-26T06:22:54;7.30;;;3.22;;
35693;SDS011;21812;55.536;37.664;2024-02-26T06:25:20;4.68;;;2.80;;
35693;SDS011;21812;55.536;37.664;2024-02-26T06:27:45;9.95;;;3.63;;
35693;SDS011;21812;55.536;37.664;2024-02-26T06:30:11;13.57;;;4.15;;
35693;SDS011;21812;55.536;37.664;2024-02-26T06:32:37;8.27;;;3.65;;
35693;SDS011;21812;55.536;37.664;2024-02-26T06:35:03;11.65;;;4.68;;
35693;SDS011;21812;55.536;37.664;2024-02-26T06:37:33;10.57;;;3.58;;
35693;SDS011;21812;55.536;37.664;2024-02-26T06:39:59;5.15;;;3.15;;
35693;SDS011;21812;55.536;37.664;2024-02-26T06:42:25;6.32;;;4.05;;
35693;SDS011;21812;55.536;37.664;2024-02-26T06:44:51;6.05;;;2.70;;
35693;SDS011;21812;55.536;37.664;2024-02-26T06:47:17;5.30;;;3.25;;
35693;SDS011;21812;55.536;37.664;2024-02-26T06:49:42;6.10;;;2.78;;
35693;SDS011;21812;55.536;37.664;2024-02-26T06:52:09;18.80;;;4.15;;
35693;SDS011;21812;55.536;37.664;2024-02-26T06:54:35;6.15;;;3.00;;
35693;SDS011;21812;55.536;37.664;2024-02-26T06:57:00;5.47;;;2.55;;
35693;SDS011;21812;55.536;37.664;2024-02-26T06:59:26;5.30;;;2.97;;
35693;SDS011;21812;55.536;37.664;2024-02-26T07:01:52;8.30;;;2.95;;
35693;SDS011;21812;55.536;37.664;2024-02-26T07:04:20;5.65;;;2.60;;
35693;SDS011;21812;55.536;37.664;2024-02-26T07:06:45;5.25;;;2.70;;
35693;SDS011;21812;55.536;37.664;2024-02-26T07:09:12;5.03;;;2.63;;
35693;SDS011;21812;55.536;37.664;2024-02-26T07:11:37;6.63;;;2.88;;
35693;SDS011;21812;55.536;37.664;2024-02-26T07:14:08;5.40;;;2.90;;
35693;SDS011;21812;55.536;37.664;2024-02-26T07:16:34;7.00;;;3.00;;
35693;SDS011;21812;55.536;37.664;2024-02-26T07:18:59;3.35;;;2.25;;
35693;SDS011;21812;55.536;37.664;2024-02-26T07:21:25;3.88;;;2.40;;
35693;SDS011;21812;55.536;37.664;2024-02-26T07:23:51;6.78;;;2.60;;
35693;SDS011;21812;55.536;37.664;2024-02-26T07:26:17;6.88;;;3.08;;
35693;SDS011;21812;55.536;37.664;2024-02-26T07:28:44;5.65;;;2.78;;
35693;SDS011;21812;55.536;37.664;2024-02-26T07:31:10;4.40;;;2.97;;
35693;SDS011;21812;55.536;37.664;2024-02-26T07:33:36;4.63;;;2.28;;
35693;SDS011;21812;55.536;37.664;2024-02-26T07:36:02;5.30;;;2.70;;
35693;SDS011;21812;55.536;37.664;2024-02-26T07:38:28;4.68;;;2.88;;
35693;SDS011;21812;55.536;37.664;2024-02-26T07:40:53;4.40;;;2.83;;
35693;SDS011;21812;55.536;37.664;2024-02-26T07:43:19;5.78;;;3.38;;
35693;SDS011;21812;55.536;37.664;2024-02-26T07:45:45;5.07;;;2.78;;
35693;SDS011;21812;55.536;37.664;2024-02-26T07:48:10;5.15;;;2.60;;
35693;SDS011;21812;55.536;37.664;2024-02-26T07:50:37;7.72;;;2.97;;
35693;SDS011;21812;55.536;37.664;2024-02-26T07:53:03;14.93;;;2.70;;
35693;SDS011;21812;55.536;37.664;2024-02-26T07:55:29;3.55;;;2.83;;
35693;SDS011;21812;55.536;37.664;2024-02-26T07:57:54;5.57;;;3.47;;
35693;SDS011;21812;55.536;37.664;2024-02-26T08:00:20;4.95;;;2.55;;
35693;SDS011;21812;55.536;37.664;2024-02-26T08:02:46;4.97;;;3.13;;
35693;SDS011;21812;55.536;37.664;2024-02-26T08:05:12;3.70;;;2.70;;
35693;SDS011;21812;55.536;37.664;2024-02-26T08:07:38;6.55;;;3.00;;
35693;SDS011;21812;55.536;37.664;2024-02-26T08:10:03;7.88;;;3.50;;
35693;SDS011;21812;55.536;37.664;2024-02-26T08:12:29;5.55;;;2.33;;
35693;SDS011;21812;55.536;37.664;2024-02-26T08:14:55;7.50;;;2.70;;
35693;SDS011;21812;55.536;37.664;2024-02-26T08:17:21;7.63;;;3.05;;
35693;SDS011;21812;55.536;37.664;2024-02-26T08:19:47;4.28;;;2.42;;
35693;SDS011;21812;55.536;37.664;2024-02-26T08:22:12;6.72;;;3.00;;
35693;SDS011;21812;55.536;37.664;2024-02-26T08:24:42;7.38;;;2.83;;
35693;SDS011;21812;55.536;37.664;2024-02-26T08:27:08;5.95;;;2.97;;
35693;SDS011;21812;55.536;37.664;2024-02-26T08:29:34;8.10;;;2.63;;
35693;SDS011;21812;55.536;37.664;2024-02-26T08:32:00;6.05;;;2.78;;
35693;SDS011;21812;55.536;37.664;2024-02-26T08:34:26;10.32;;;2.70;;
35693;SDS011;21812;55.536;37.664;2024-02-26T08:36:52;9.20;;;3.13;;
35693;SDS011;21812;55.536;37.664;2024-02-26T08:39:17;6.90;;;3.08;;
35693;SDS011;21812;55.536;37.664;2024-02-26T08:41:43;4.05;;;2.88;;
35693;SDS011;21812;55.536;37.664;2024-02-26T08:44:10;8.30;;;2.83;;
35693;SDS011;21812;55.536;37.664;2024-02-26T08:46:36;6.75;;;3.22;;
35693;SDS011;21812;55.536;37.664;2024-02-26T08:49:02;9.60;;;2.72;;
35693;SDS011;21812;55.536;37.664;2024-02-26T08:51:28;6.88;;;2.53;;
35693;SDS011;21812;55.536;37.664;2024-02-26T08:53:54;7.60;;;2.75;;
35693;SDS011;21812;55.536;37.664;2024-02-26T08:56:20;4.90;;;2.90;;
35693;SDS011;21812;55.536;37.664;2024-02-26T08:58:47;6.32;;;3.10;;
35693;SDS011;21812;55.536;37.664;2024-02-26T09:01:19;8.00;;;2.80;;
35693;SDS011;21812;55.536;37.664;2024-02-26T09:03:45;8.17;;;2.77;;
35693;SDS011;21812;55.536;37.664;2024-02-26T09:06:11;7.75;;;3.10;;
35693;SDS011;21812;55.536;37.664;2024-02-26T09:08:39;6.35;;;2.63;;
35693;SDS011;21812;55.536;37.664;2024-02-26T09:11:05;6.32;;;2.83;;
35693;SDS011;21812;55.536;37.664;2024-02-26T09:13:31;7.20;;;2.80;;
35693;SDS011;21812;55.536;37.664;2024-02-26T09:15:56;8.27;;;3.00;;
35693;SDS011;21812;55.536;37.664;2024-02-26T09:18:23;9.10;;;3.37;;
35693;SDS011;21812;55.536;37.664;2024-02-26T09:20:49;5.95;;;2.55;;
35693;SDS011;21812;55.536;37.664;2024-02-26T09:23:15;5.70;;;3.25;;
35693;SDS011;21812;55.536;37.664;2024-02-26T09:25:41;6.82;;;3.50;;
35693;SDS011;21812;55.536;37.664;2024-02-26T09:28:06;5.00;;;2.75;;
35693;SDS011;21812;55.536;37.664;2024-02-26T09:30:32;14.27;;;3.97;;
35693;SDS011;21812;55.536;37.664;2024-02-26T09:32:58;9.45;;;3.25;;
35693;SDS011;21812;55.536;37.664;2024-02-26T09:35:23;7.68;;;3.08;;
35693;SDS011;21812;55.536;37.664;2024-02-26T09:37:49;8.90;;;3.15;;
35693;SDS011;21812;55.536;37.664;2024-02-26T09:40:15;6.13;;;2.83;;
35693;SDS011;21812;55.536;37.664;2024-02-26T09:42:43;6.65;;;2.92;;
35693;SDS011;21812;55.536;37.664;2024-02-26T09:45:11;9.13;;;3.60;;
35693;SDS011;21812;55.536;37.664;2024-02-26T09:47:43;6.72;;;2.72;;
35693;SDS011;21812;55.536;37.664;2024-02-26T09:50:10;5.32;;;3.58;;
35693;SDS011;21812;55.536;37.664;2024-02-26T09:52:39;6.65;;;3.22;;
35693;SDS011;21812;55.536;37.664;2024-02-26T09:55:08;4.90;;;2.67;;
35693;SDS011;21812;55.536;37.664;2024-02-26T09:57:36;6.93;;;2.78;;
35693;SDS011;21812;55.536;37.664;2024-02-26T10:00:03;7.32;;;3.30;;
35693;SDS011;21812;55.536;37.664;2024-02-26T10:02:33;6.43;;;2.78;;
35693;SDS011;21812;55.536;37.664;2024-02-26T10:05:02;3.20;;;2.33;;
35693;SDS011;21812;55.536;37.664;2024-02-26T10:07:30;4.63;;;2.65;;
35693;SDS011;21812;55.536;37.664;2024-02-26T10:09:57;10.25;;;2.90;;
35693;SDS011;21812;55.536;37.664;2024-02-26T10:12:22;8.48;;;3.15;;
35693;SDS011;21812;55.536;37.664;2024-02-26T10:14:51;8.68;;;3.30;;
35693;SDS011;21812;55.536;37.664;2024-02-26T10:17:16;7.47;;;3.97;;
35693;SDS011;21812;55.536;37.664;2024-02-26T10:19:44;8.25;;;3.30;;
35693;SDS011;21812;55.536;37.664;2024-02-26T10:22:10;9.65;;;3.65;;
35693;SDS011;21812;55.536;37.664;2024-02-26T10:24:36;8.63;;;2.88;;
35693;SDS011;21812;55.536;37.664;2024-02-26T10:27:02;14.40;;;3.78;;
35693;SDS011;21812;55.536;37.664;2024-02-26T10:29:28;6.60;;;2.83;;
35693;SDS011;21812;55.536;37.664;2024-02-26T10:31:54;7.43;;;2.97;;
35693;SDS011;21812;55.536;37.664;2024-02-26T10:34:21;4.05;;;3.10;;
35693;SDS011;21812;55.536;37.664;2024-02-26T10:36:46;10.23;;;3.07;;
35693;SDS011;21812;55.536;37.664;2024-02-26T10:39:12;8.18;;;3.85;;
35693;SDS011;21812;55.536;37.664;2024-02-26T10:41:43;9.77;;;3.45;;
35693;SDS011;21812;55.536;37.664;2024-02-26T10:44:10;13.95;;;3.78;;
35693;SDS011;21812;55.536;37.664;2024-02-26T10:46:39;6.65;;;2.90;;
35693;SDS011;21812;55.536;37.664;2024-02-26T10:49:07;10.30;;;4.30;;
35693;SDS011;21812;55.536;37.664;2024-02-26T10:51:39;8.30;;;4.05;;
35693;SDS011;21812;55.536;37.664;2024-02-26T10:54:09;7.82;;;3.08;;
35693;SDS011;21812;55.536;37.664;2024-02-26T10:56:41;8.50;;;3.00;;
35693;SDS011;21812;55.536;37.664;2024-02-26T10:59:11;6.25;;;3.97;;
35693;SDS011;21812;55.536;37.664;2024-02-26T11:01:37;10.93;;;4.97;;
35693;SDS011;21812;55.536;37.664;2024-02-26T11:04:06;8.10;;;3.72;;
35693;SDS011;21812;55.536;37.664;2024-02-26T11:06:35;7.53;;;3.83;;
35693;SDS011;21812;55.536;37.664;2024-02-26T11:09:01;10.32;;;4.10;;
35693;SDS011;21812;55.536;37.664;2024-02-26T11:11:31;11.05;;;4.05;;
35693;SDS011;21812;55.536;37.664;2024-02-26T11:14:00;11.13;;;4.60;;
35693;SDS011;21812;55.536;37.664;2024-02-26T11:16:26;12.95;;;5.93;;
35693;SDS011;21812;55.536;37.664;2024-02-26T11:18:53;9.98;;;3.58;;
35693;SDS011;21812;55.536;37.664;2024-02-26T11:21:21;8.05;;;3.17;;
35693;SDS011;21812;55.536;37.664;2024-02-26T11:24:05;9.85;;;4.07;;
35693;SDS011;21812;55.536;37.664;2024-02-26T11:26:34;5.93;;;4.03;;
35693;SDS011;21812;55.536;37.664;2024-02-26T11:29:04;5.32;;;2.45;;
35693;SDS011;21812;55.536;37.664;2024-02-26T11:31:32;8.95;;;2.95;;
35693;SDS011;21812;55.536;37.664;2024-02-26T11:33:59;5.80;;;3.10;;
35693;SDS011;21812;55.536;37.664;2024-02-26T11:36:25;9.73;;;4.15;;
35693;SDS011;21812;55.536;37.664;2024-02-26T11:38:50;9.30;;;3.70;;
35693;SDS011;21812;55.536;37.664;2024-02-26T11:41:18;7.28;;;3.08;;
35693;SDS011;21812;55.536;37.664;2024-02-26T11:46:29;11.45;;;4.05;;
35693;SDS011;21812;55.536;37.664;2024-02-26T11:49:00;9.77;;;4.35;;
35693;SDS011;21812;55.536;37.664;2024-02-26T11:51:27;7.65;;;3.38;;
35693;SDS011;21812;55.536;37.664;2024-02-26T11:53:57;7.43;;;3.70;;
35693;SDS011;21812;55.536;37.664;2024-02-26T11:56:24;8.32;;;4.22;;
35693;SDS011;21812;55.536;37.664;2024-02-26T12:01:50;8.25;;;3.15;;
35693;SDS011;21812;55.536;37.664;2024-02-26T12:04:18;11.93;;;3.47;;
35693;SDS011;21812;55.536;37.664;2024-02-26T12:06:48;9.10;;;4.05;;
35693;SDS011;21812;55.536;37.664;2024-02-26T12:12:06;11.95;;;5.20;;
35693;SDS011;21812;55.536;37.664;2024-02-26T12:14:34;27.63;;;7.70;;
35693;SDS011;21812;55.536;37.664;2024-02-26T12:17:22;13.05;;;3.60;;
35693;SDS011;21812;55.536;37.664;2024-02-26T12:22:16;8.90;;;3.53;;
35693;SDS011;21812;55.536;37.664;2024-02-26T12:24:43;6.30;;;2.85;;
35693;SDS011;21812;55.536;37.664;2024-02-26T12:27:09;4.90;;;3.28;;
35693;SDS011;21812;55.536;37.664;2024-02-26T12:29:34;12.23;;;3.88;;
35693;SDS011;21812;55.536;37.664;2024-02-26T12:32:00;8.43;;;3.65;;
35693;SDS011;21812;55.536;37.664;2024-02-26T12:34:27;6.90;;;3.00;;
35693;SDS011;21812;55.536;37.664;2024-02-26T12:36:53;6.70;;;2.42;;
35693;SDS011;21812;55.536;37.664;2024-02-26T12:39:20;13.85;;;5.18;;
35693;SDS011;21812;55.536;37.664;2024-02-26T12:41:46;8.80;;;2.28;;
35693;SDS011;21812;55.536;37.664;2024-02-26T12:44:17;9.70;;;3.08;;
35693;SDS011;21812;55.536;37.664;2024-02-26T12:46:44;4.90;;;2.55;;
35693;SDS011;21812;55.536;37.664;2024-02-26T12:49:14;5.93;;;2.63;;
35693;SDS011;21812;55.536;37.664;2024-02-26T12:51:42;4.55;;;2.05;;
35693;SDS011;21812;55.536;37.664;2024-02-26T12:54:08;4.20;;;1.90;;
35693;SDS011;21812;55.536;37.664;2024-02-26T12:56:34;5.13;;;2.55;;
35693;SDS011;21812;55.536;37.664;2024-02-26T12:59:00;5.55;;;2.30;;
35693;SDS011;21812;55.536;37.664;2024-02-26T13:01:28;6.18;;;3.10;;
35693;SDS011;21812;55.536;37.664;2024-02-26T13:03:55;4.82;;;2.08;;
35693;SDS011;21812;55.536;37.664;2024-02-26T13:06:22;6.10;;;2.85;;
35693;SDS011;21812;55.536;37.664;2024-02-26T13:08:48;5.18;;;2.08;;
35693;SDS011;21812;55.536;37.664;2024-02-26T13:11:14;5.32;;;2.40;;
35693;SDS011;21812;55.536;37.664;2024-02-26T13:13:40;5.78;;;3.22;;
35693;SDS011;21812;55.536;37.664;2024-02-26T13:16:07;12.10;;;3.00;;
35693;SDS011;21812;55.536;37.664;2024-02-26T13:18:35;5.20;;;2.45;;
35693;SDS011;21812;55.536;37.664;2024-02-26T13:21:14;3.15;;;1.75;;
35693;SDS011;21812;55.536;37.664;2024-02-26T13:23:42;7.75;;;2.30;;
35693;SDS011;21812;55.536;37.664;2024-02-26T13:26:08;4.35;;;2.13;;
35693;SDS011;21812;55.536;37.664;2024-02-26T13:28:37;2.78;;;1.60;;
35693;SDS011;21812;55.536;37.664;2024-02-26T13:31:03;5.15;;;2.45;;
35693;SDS011;21812;55.536;37.664;2024-02-26T13:33:33;9.93;;;2.60;;
35693;SDS011;21812;55.536;37.664;2024-02-26T13:35:59;6.07;;;2.35;;
35693;SDS011;21812;55.536;37.664;2024-02-26T13:38:26;8.90;;;2.55;;
35693;SDS011;21812;55.536;37.664;2024-02-26T13:40:53;5.63;;;2.33;;
35693;SDS011;21812;55.536;37.664;2024-02-26T13:43:19;7.28;;;2.72;;
35693;SDS011;21812;55.536;37.664;2024-02-26T13:45:45;5.50;;;2.40;;
35693;SDS011;21812;55.536;37.664;2024-02-26T13:48:11;5.00;;;1.80;;
35693;SDS011;21812;55.536;37.664;2024-02-26T13:50:38;4.88;;;2.15;;
35693;SDS011;21812;55.536;37.664;2024-02-26T13:53:05;4.47;;;1.88;;
35693;SDS011;21812;55.536;37.664;2024-02-26T13:55:31;6.78;;;2.47;;
35693;SDS011;21812;55.536;37.664;2024-02-26T13:57:58;8.18;;;2.88;;
35693;SDS011;21812;55.536;37.664;2024-02-26T14:00:27;6.72;;;3.42;;
35693;SDS011;21812;55.536;37.664;2024-02-26T14:02:54;8.00;;;3.05;;
35693;SDS011;21812;55.536;37.664;2024-02-26T14:05:19;6.68;;;3.45;;
35693;SDS011;21812;55.536;37.664;2024-02-26T14:07:45;10.38;;;3.33;;
35693;SDS011;21812;55.536;37.664;2024-02-26T14:10:11;6.68;;;2.78;;
35693;SDS011;21812;55.536;37.664;2024-02-26T14:12:38;5.20;;;3.23;;
35693;SDS011;21812;55.536;37.664;2024-02-26T14:15:07;12.55;;;3.90;;
35693;SDS011;21812;55.536;37.664;2024-02-26T14:17:35;6.88;;;3.17;;
35693;SDS011;21812;55.536;37.664;2024-02-26T14:20:00;9.13;;;3.90;;
35693;SDS011;21812;55.536;37.664;2024-02-26T14:22:27;6.93;;;3.22;;
35693;SDS011;21812;55.536;37.664;2024-02-26T14:24:53;6.28;;;3.28;;
35693;SDS011;21812;55.536;37.664;2024-02-26T14:27:18;8.55;;;3.60;;
35693;SDS011;21812;55.536;37.664;2024-02-26T14:29:47;5.25;;;4.18;;
35693;SDS011;21812;55.536;37.664;2024-02-26T14:32:14;5.65;;;3.67;;
35693;SDS011;21812;55.536;37.664;2024-02-26T14:34:40;10.50;;;4.18;;
35693;SDS011;21812;55.536;37.664;2024-02-26T14:37:05;6.25;;;3.40;;
35693;SDS011;21812;55.536;37.664;2024-02-26T14:39:31;11.20;;;4.43;;
35693;SDS011;21812;55.536;37.664;2024-02-26T14:41:58;7.83;;;3.33;;